• Join FlightAware (Why Join?)
  • Login
  • US Flag 
05:43AM EDT


 

Airport Tracker/Info


-or-


 

Live Flight TrackerFlight Track Log ✈ N27XP ✈ 23-Oct-2013 ✈ KHAO - KSOP

Flight Track Log - Related Links

Times and Time Zones

All times are in EDT time to prevent confusion due to time zone crossing. See the N27XP flight status page for this flight to view local times or setup timezone preferences in your user account.

Time Position Orientation Groundspeed Altitude Reporting Facility
EDT Latitude Longitude Course Direction KTS MPH feet Rate Location/Type
05:12PM 39.3667 -84.5333 297° West 135 155 1,700  Level Cincinnati TRACON
05:14PM 39.4000 -84.6167 297° West 194 223 4,600 2,340 Climbing Cincinnati TRACON
05:15PM 39.3833 -84.6833 252° West 243 280 7,100 3,060 Climbing Cincinnati TRACON
05:16PM 39.3167 -84.6833 180° South 272 313 10,500 2,520 Climbing Cincinnati TRACON
05:17PM 39.2128 -84.6725 175° South 310 357 12,800 2,160 Climbing Indianapolis Center
05:18PM 39.1136 -84.6558 173° South 350 403 15,400 2,460 Climbing Indianapolis Center
05:19PM 39.0078 -84.6386 173° South 371 427 17,900 2,400 Climbing Indianapolis Center
05:20PM 38.8975 -84.6106 169° South 396 456 20,400 2,340 Climbing Indianapolis Center
05:21PM 38.7842 -84.4908 141° Southeast 443 510 22,800 1,920 Climbing Indianapolis Center
05:22PM 38.7008 -84.3675 131° Southeast 457 526 24,400 1,440 Climbing Indianapolis Center
05:23PM 38.6053 -84.2292 131° Southeast 477 549 25,800 1,320 Climbing Indianapolis Center
05:24PM 38.5150 -84.0958 131° Southeast 493 567 27,200 1,320 Climbing Indianapolis Center
05:25PM 38.4247 -83.9628 131° Southeast 494 568 28,600 1,260 Climbing Indianapolis Center
05:26PM 38.3347 -83.8292 131° Southeast 496 571 29,900 1,080 Climbing Indianapolis Center
05:27PM 38.2433 -83.6986 132° Southeast 494 568 30,900 480 Climbing Indianapolis Center
05:28PM 38.1350 -83.5425 131° Southeast 502 578 31,000  Climbing Indianapolis Center
05:29PM 38.0367 -83.4083 133° Southeast 514 592 31,000  Level Indianapolis Center
05:30PM 37.9264 -83.2931 140° Southeast 514 592 31,000  Level Indianapolis Center
05:31PM 37.8064 -83.1997 148° Southeast 509 586 31,000  Level Indianapolis Center
05:32PM 37.6892 -83.1000 146° Southeast 505 581 31,000  Level Indianapolis Center
05:33PM 37.5697 -82.9653 138° Southeast 494 568 31,000  Level Indianapolis Center
05:34PM 37.4814 -82.8300 129° Southeast 496 571 31,000  Level Indianapolis Center
05:36PM 37.3947 -82.6997 130° Southeast 486 559 31,000  Level Indianapolis Center
05:37PM 37.3086 -82.5719 130° Southeast 478 550 31,000  Level Indianapolis Center
05:38PM 37.2214 -82.4428 130° Southeast 479 551 31,000  Level Indianapolis Center
05:39PM 37.1319 -82.3097 130° Southeast 490 564 31,000  Level Indianapolis Center
05:40PM 37.0394 -82.1744 131° Southeast 502 578 31,000  Level Indianapolis Center
05:41PM 36.9319 -82.0161 130° Southeast 508 585 31,000  Level Indianapolis Center
05:42PM 36.8392 -81.8808 131° Southeast 510 587 31,000  Level Indianapolis Center
05:42PM 36.7886 -81.8069 130° Southeast 510 587 31,000 -120 Level Atlanta Center
05:43PM 36.6967 -81.6725 130° Southeast 510 587 30,900 -540 Descending Atlanta Center
05:44PM 36.6172 -81.5558 130° Southeast 505 581 30,000 -1,200 Descending Atlanta Center
05:45PM 36.5183 -81.4142 131° Southeast 500 575 28,600 -1,620 Descending Atlanta Center
05:46PM 36.4256 -81.2831 131° Southeast 500 575 26,800 -2,160 Descending Atlanta Center
05:47PM 36.3372 -81.1547 130° Southeast 495 570 24,300 -2,520 Descending Atlanta Center
05:48PM 36.2450 -81.0422 135° Southeast 485 558 21,800 -2,520 Descending Atlanta Center
05:49PM 36.1383 -80.9561 147° Southeast 474 545 19,300 -1,440 Descending Atlanta Center
05:50PM 36.0339 -80.8675 146° Southeast 457 526 19,000 -180 Descending Atlanta Center
05:51PM 35.9456 -80.7556 134° Southeast 451 519 19,000  Level Atlanta Center
05:52PM 35.8694 -80.6433 130° Southeast 463 533 19,000 -480 Level Atlanta Center
05:53PM 35.7575 -80.5892 159° South 446 513 18,100 -1,740 Descending Atlanta Center
05:54PM 35.6533 -80.5219 152° Southeast 423 487 15,600 -1,560 Descending Atlanta Center
05:55PM 35.5928 -80.3842 118° Southeast 413 475 15,000 -300 Descending Atlanta Center
05:56PM 35.5450 -80.2511 114° Southeast 418 481 15,000 -480 Level Atlanta Center
05:57PM 35.4925 -80.1056 114° Southeast 418 481 14,100 -1,500 Descending Atlanta Center
05:58PM 35.4425 -79.9806 116° Southeast 411 473 12,100 -1,740 Descending Atlanta Center
05:59PM 35.3950 -79.8681 117° Southeast 411 473 10,700 420 Descending Atlanta Center
06:00PM 35.3428 -79.7436 117° Southeast 411 473 13,000 1,140 Climbing Atlanta Center
06:01PM 35.2922 -79.6189 116° Southeast 411 473 13,000  Level Atlanta Center
06:02PM 35.2606 -79.5444 118° Southeast 411 473 13,000  Level Atlanta Center
06:03PM 35.2606 -79.5444 219° Southwest 411 473 13,000  Level Atlanta Center
06:05PM 35.2606 -79.5444 219° Southwest 411 473 13,000  Level Atlanta Center
06:08PM 35.2338 -79.3843 121° Southeast  Level FlightAware Approximate
06:15PM 35.2333 -79.3833 121° Southeast  Level FlightAware Approximate
06:16PM 35.2380 -79.3883 121° Southeast  Level Estimated
06:17PM 35.2333 -79.3833 121° Southeast  Level FlightAware Approximate
06:18PM 35.2380 -79.3883 121° Southeast  Level Estimated
06:19PM 35.2333 -79.3833 121° Southeast  Level FlightAware Approximate
06:20PM 35.2380 -79.3883 121° Southeast  Level Estimated
06:21PM 35.2333 -79.3833 121° Southeast  Level FlightAware Approximate